首页
METAR-TAF:

METAR-TAF

机场 :

埃德蒙顿Namao, 艾伯塔, 加拿大

纬度: 53-40N, 经度: 113-28W, 海拔: 688米

当前天气观测

该预报发布于38分钟前的18:00 UTC
风速9节,风向西
温度 19°C
湿度 40%
气压 1012 hPa
能見度: 14.5公里
少量云层高于9200英尺

METAR: CYED 021800Z AUTO 27009KT 9SM FEW092 19/05 A2989 RMK SLP128

时间: 12:38 (18:38 UTC)

预报

该预报发布于1小时和6分钟前的17:32 UTC
预报有效从02日的 18点(UTC)到 03日的 06点(UTC)
风速8节,风向西转西南
能見度: 10公里
散云层高于6000英尺
从 02日的 2100点(UTC)
风速10节,风向西转西南
能見度: 10公里
多云层高于6000英尺
阴天层高于10000英尺
短暂存在
从 02日的 21点(UTC)到 03日的 03点(UTC)
能見度: 10公里
小阵雨
从 03日的 0300点(UTC)
风速8节,风向西
能見度: 10公里
散云层高于3000英尺
阴天层高于6000英尺
小雨
短暂存在
从 03日的 03点(UTC)到 03日的 06点(UTC)
能見度: 9.7公里
散云层高于1000英尺
阴天层高于3000英尺
小阵雨, 轻雾

TAF: CYED 021732Z 0218/0306 24008KT P6SM SCT060 FM022100 24010KT P6SM BKN060 OVC100 TEMPO 0221/0303 P6SM -SHRA FM030300 28008KT P6SM -RA SCT030 OVC060 TEMPO 0303/0306 6SM -SHRA BR SCT010 OVC030 RMK FCST BASED ON AUTO OBS. NXT FCST BY 030000Z

超过4000个机场的气象观测和天气预报(METAR&TAF报告)。

可查询的气象台以黄色和红色小点在地图上表示。

将鼠标移到小点上方,可查看气象台名称。

然后点击查看天气观测和预报。

如需切换地图:点击带黑十字的绿色按钮放大地图;点击带横线的绿色按钮缩小地图;或者点击绿色箭头查看邻近地区的地图。


METAR-TAF: